sensor_id;sensor_type;location;lat;lon;timestamp;P1;durP1;ratioP1;P2;durP2;ratioP2
30723;SDS011;17473;52.286;20.930;2023-11-21T00:01:16;24.23;;;15.47;;
30723;SDS011;17473;52.286;20.930;2023-11-21T00:03:43;25.97;;;14.73;;
30723;SDS011;17473;52.286;20.930;2023-11-21T00:06:11;30.50;;;17.70;;
30723;SDS011;17473;52.286;20.930;2023-11-21T00:08:38;25.70;;;14.10;;
30723;SDS011;17473;52.286;20.930;2023-11-21T00:11:05;26.57;;;15.23;;
30723;SDS011;17473;52.286;20.930;2023-11-21T00:13:32;28.37;;;17.93;;
30723;SDS011;17473;52.286;20.930;2023-11-21T00:16:01;27.47;;;15.43;;
30723;SDS011;17473;52.286;20.930;2023-11-21T00:18:28;29.50;;;17.17;;
30723;SDS011;17473;52.286;20.930;2023-11-21T00:20:55;29.33;;;17.80;;
30723;SDS011;17473;52.286;20.930;2023-11-21T00:23:25;26.10;;;14.73;;
30723;SDS011;17473;52.286;20.930;2023-11-21T00:25:52;22.33;;;13.37;;
30723;SDS011;17473;52.286;20.930;2023-11-21T00:28:19;25.83;;;14.93;;
30723;SDS011;17473;52.286;20.930;2023-11-21T00:30:46;28.00;;;16.93;;
30723;SDS011;17473;52.286;20.930;2023-11-21T00:33:13;28.53;;;17.03;;
30723;SDS011;17473;52.286;20.930;2023-11-21T00:35:41;30.37;;;16.73;;
30723;SDS011;17473;52.286;20.930;2023-11-21T00:38:08;28.97;;;17.23;;
30723;SDS011;17473;52.286;20.930;2023-11-21T00:40:36;28.93;;;16.83;;
30723;SDS011;17473;52.286;20.930;2023-11-21T00:43:04;26.57;;;15.63;;
30723;SDS011;17473;52.286;20.930;2023-11-21T00:45:31;30.23;;;17.10;;
30723;SDS011;17473;52.286;20.930;2023-11-21T00:47:59;29.53;;;16.37;;
30723;SDS011;17473;52.286;20.930;2023-11-21T00:50:26;26.43;;;15.37;;
30723;SDS011;17473;52.286;20.930;2023-11-21T00:52:53;32.73;;;17.67;;
30723;SDS011;17473;52.286;20.930;2023-11-21T00:55:20;32.57;;;16.80;;
30723;SDS011;17473;52.286;20.930;2023-11-21T00:57:47;30.13;;;17.23;;
30723;SDS011;17473;52.286;20.930;2023-11-21T01:00:15;33.53;;;18.30;;
30723;SDS011;17473;52.286;20.930;2023-11-21T01:02:44;33.13;;;18.03;;
30723;SDS011;17473;52.286;20.930;2023-11-21T01:05:11;27.97;;;16.87;;
30723;SDS011;17473;52.286;20.930;2023-11-21T01:07:38;28.90;;;15.67;;
30723;SDS011;17473;52.286;20.930;2023-11-21T01:10:06;30.77;;;17.00;;
30723;SDS011;17473;52.286;20.930;2023-11-21T01:12:35;27.67;;;16.97;;
30723;SDS011;17473;52.286;20.930;2023-11-21T01:15:04;28.00;;;15.77;;
30723;SDS011;17473;52.286;20.930;2023-11-21T01:17:35;25.33;;;15.47;;
30723;SDS011;17473;52.286;20.930;2023-11-21T01:20:03;27.13;;;15.23;;
30723;SDS011;17473;52.286;20.930;2023-11-21T01:22:39;26.33;;;17.03;;
30723;SDS011;17473;52.286;20.930;2023-11-21T01:25:07;27.10;;;15.47;;
30723;SDS011;17473;52.286;20.930;2023-11-21T01:27:34;26.93;;;16.80;;
30723;SDS011;17473;52.286;20.930;2023-11-21T01:30:02;30.30;;;16.20;;
30723;SDS011;17473;52.286;20.930;2023-11-21T01:32:29;24.43;;;15.47;;
30723;SDS011;17473;52.286;20.930;2023-11-21T01:34:57;27.17;;;15.93;;
30723;SDS011;17473;52.286;20.930;2023-11-21T01:37:24;26.80;;;15.23;;
30723;SDS011;17473;52.286;20.930;2023-11-21T01:39:54;29.43;;;16.33;;
30723;SDS011;17473;52.286;20.930;2023-11-21T01:42:22;27.97;;;15.63;;
30723;SDS011;17473;52.286;20.930;2023-11-21T01:44:49;26.67;;;14.67;;
30723;SDS011;17473;52.286;20.930;2023-11-21T01:47:16;27.23;;;15.43;;
30723;SDS011;17473;52.286;20.930;2023-11-21T01:49:44;27.17;;;15.80;;
30723;SDS011;17473;52.286;20.930;2023-11-21T01:52:12;26.30;;;16.07;;
30723;SDS011;17473;52.286;20.930;2023-11-21T01:54:41;27.80;;;17.27;;
30723;SDS011;17473;52.286;20.930;2023-11-21T01:57:08;26.97;;;16.13;;
30723;SDS011;17473;52.286;20.930;2023-11-21T01:59:36;29.63;;;16.80;;
30723;SDS011;17473;52.286;20.930;2023-11-21T02:02:07;28.60;;;15.87;;
30723;SDS011;17473;52.286;20.930;2023-11-21T02:04:36;29.33;;;14.70;;
30723;SDS011;17473;52.286;20.930;2023-11-21T02:07:04;22.87;;;13.53;;
30723;SDS011;17473;52.286;20.930;2023-11-21T02:09:34;22.87;;;13.83;;
30723;SDS011;17473;52.286;20.930;2023-11-21T02:12:04;24.77;;;14.73;;
30723;SDS011;17473;52.286;20.930;2023-11-21T02:14:32;23.33;;;14.50;;
30723;SDS011;17473;52.286;20.930;2023-11-21T02:16:59;23.67;;;15.10;;
30723;SDS011;17473;52.286;20.930;2023-11-21T02:19:27;27.67;;;15.77;;
30723;SDS011;17473;52.286;20.930;2023-11-21T02:21:57;27.10;;;15.23;;
30723;SDS011;17473;52.286;20.930;2023-11-21T02:24:31;25.83;;;16.03;;
30723;SDS011;17473;52.286;20.930;2023-11-21T02:26:58;25.30;;;15.20;;
30723;SDS011;17473;52.286;20.930;2023-11-21T02:29:26;25.43;;;14.53;;
30723;SDS011;17473;52.286;20.930;2023-11-21T02:31:56;26.17;;;15.57;;
30723;SDS011;17473;52.286;20.930;2023-11-21T02:34:24;29.40;;;15.73;;
30723;SDS011;17473;52.286;20.930;2023-11-21T02:36:52;25.03;;;13.80;;
30723;SDS011;17473;52.286;20.930;2023-11-21T02:39:20;23.83;;;14.80;;
30723;SDS011;17473;52.286;20.930;2023-11-21T02:41:48;21.97;;;13.87;;
30723;SDS011;17473;52.286;20.930;2023-11-21T02:44:16;27.87;;;15.13;;
30723;SDS011;17473;52.286;20.930;2023-11-21T02:46:43;25.00;;;14.93;;
30723;SDS011;17473;52.286;20.930;2023-11-21T02:49:10;25.03;;;14.50;;
30723;SDS011;17473;52.286;20.930;2023-11-21T02:51:38;24.10;;;14.97;;
30723;SDS011;17473;52.286;20.930;2023-11-21T02:54:05;24.23;;;14.93;;
30723;SDS011;17473;52.286;20.930;2023-11-21T02:56:34;24.70;;;15.10;;
30723;SDS011;17473;52.286;20.930;2023-11-21T02:59:01;24.93;;;14.93;;
30723;SDS011;17473;52.286;20.930;2023-11-21T03:01:29;25.27;;;14.73;;
30723;SDS011;17473;52.286;20.930;2023-11-21T03:03:56;22.77;;;14.47;;
30723;SDS011;17473;52.286;20.930;2023-11-21T03:06:23;26.50;;;16.00;;
30723;SDS011;17473;52.286;20.930;2023-11-21T03:08:50;26.93;;;17.00;;
30723;SDS011;17473;52.286;20.930;2023-11-21T03:11:17;28.83;;;16.60;;
30723;SDS011;17473;52.286;20.930;2023-11-21T03:13:44;25.43;;;15.33;;
30723;SDS011;17473;52.286;20.930;2023-11-21T03:16:12;26.80;;;15.50;;
30723;SDS011;17473;52.286;20.930;2023-11-21T03:18:41;28.67;;;16.80;;
30723;SDS011;17473;52.286;20.930;2023-11-21T03:21:08;26.40;;;15.90;;
30723;SDS011;17473;52.286;20.930;2023-11-21T03:23:35;25.37;;;16.03;;
30723;SDS011;17473;52.286;20.930;2023-11-21T03:26:03;25.13;;;15.23;;
30723;SDS011;17473;52.286;20.930;2023-11-21T03:28:30;28.03;;;15.10;;
30723;SDS011;17473;52.286;20.930;2023-11-21T03:30:57;26.73;;;14.93;;
30723;SDS011;17473;52.286;20.930;2023-11-21T03:33:25;27.83;;;16.53;;
30723;SDS011;17473;52.286;20.930;2023-11-21T03:35:52;30.00;;;15.87;;
30723;SDS011;17473;52.286;20.930;2023-11-21T03:38:19;32.10;;;16.97;;
30723;SDS011;17473;52.286;20.930;2023-11-21T03:40:46;29.23;;;16.03;;
30723;SDS011;17473;52.286;20.930;2023-11-21T03:43:14;32.03;;;16.27;;
30723;SDS011;17473;52.286;20.930;2023-11-21T03:45:41;24.03;;;16.17;;
30723;SDS011;17473;52.286;20.930;2023-11-21T03:48:08;29.17;;;16.23;;
30723;SDS011;17473;52.286;20.930;2023-11-21T03:50:38;30.63;;;16.83;;
30723;SDS011;17473;52.286;20.930;2023-11-21T03:53:05;30.60;;;16.70;;
30723;SDS011;17473;52.286;20.930;2023-11-21T03:55:32;30.27;;;17.20;;
30723;SDS011;17473;52.286;20.930;2023-11-21T03:57:59;28.20;;;15.80;;
30723;SDS011;17473;52.286;20.930;2023-11-21T04:00:27;30.67;;;16.03;;
30723;SDS011;17473;52.286;20.930;2023-11-21T04:02:54;28.77;;;15.37;;
30723;SDS011;17473;52.286;20.930;2023-11-21T04:05:22;28.53;;;16.70;;
30723;SDS011;17473;52.286;20.930;2023-11-21T04:07:50;28.60;;;17.60;;
30723;SDS011;17473;52.286;20.930;2023-11-21T04:10:17;26.87;;;15.50;;
30723;SDS011;17473;52.286;20.930;2023-11-21T04:12:45;26.23;;;15.33;;
30723;SDS011;17473;52.286;20.930;2023-11-21T04:15:12;24.77;;;15.13;;
30723;SDS011;17473;52.286;20.930;2023-11-21T04:17:41;28.67;;;16.27;;
30723;SDS011;17473;52.286;20.930;2023-11-21T04:20:09;25.13;;;15.17;;
30723;SDS011;17473;52.286;20.930;2023-11-21T04:22:40;26.13;;;14.27;;
30723;SDS011;17473;52.286;20.930;2023-11-21T04:25:11;25.20;;;15.07;;
30723;SDS011;17473;52.286;20.930;2023-11-21T04:27:42;24.13;;;14.40;;
30723;SDS011;17473;52.286;20.930;2023-11-21T04:30:14;28.03;;;15.47;;
30723;SDS011;17473;52.286;20.930;2023-11-21T04:32:41;25.70;;;14.50;;
30723;SDS011;17473;52.286;20.930;2023-11-21T04:35:09;23.43;;;12.77;;
30723;SDS011;17473;52.286;20.930;2023-11-21T04:37:36;21.67;;;12.13;;
30723;SDS011;17473;52.286;20.930;2023-11-21T04:40:03;22.90;;;12.70;;
30723;SDS011;17473;52.286;20.930;2023-11-21T04:42:34;21.80;;;13.37;;
30723;SDS011;17473;52.286;20.930;2023-11-21T04:45:05;19.80;;;12.40;;
30723;SDS011;17473;52.286;20.930;2023-11-21T04:47:38;19.17;;;11.53;;
30723;SDS011;17473;52.286;20.930;2023-11-21T04:50:06;21.13;;;11.90;;
30723;SDS011;17473;52.286;20.930;2023-11-21T04:52:33;20.27;;;12.07;;
30723;SDS011;17473;52.286;20.930;2023-11-21T04:55:01;20.03;;;12.23;;
30723;SDS011;17473;52.286;20.930;2023-11-21T04:57:29;20.17;;;12.77;;
30723;SDS011;17473;52.286;20.930;2023-11-21T04:59:56;20.53;;;12.10;;
30723;SDS011;17473;52.286;20.930;2023-11-21T05:02:23;27.00;;;12.83;;
30723;SDS011;17473;52.286;20.930;2023-11-21T05:05:01;19.23;;;11.00;;
30723;SDS011;17473;52.286;20.930;2023-11-21T05:07:30;19.37;;;11.97;;
30723;SDS011;17473;52.286;20.930;2023-11-21T05:09:58;19.83;;;10.63;;
30723;SDS011;17473;52.286;20.930;2023-11-21T05:12:25;17.97;;;10.77;;
30723;SDS011;17473;52.286;20.930;2023-11-21T05:14:53;19.57;;;10.90;;
30723;SDS011;17473;52.286;20.930;2023-11-21T05:17:20;17.97;;;11.70;;
30723;SDS011;17473;52.286;20.930;2023-11-21T05:19:47;22.30;;;11.23;;
30723;SDS011;17473;52.286;20.930;2023-11-21T05:22:15;16.33;;;11.00;;
30723;SDS011;17473;52.286;20.930;2023-11-21T05:24:43;17.80;;;11.17;;
30723;SDS011;17473;52.286;20.930;2023-11-21T05:27:10;15.23;;;9.77;;
30723;SDS011;17473;52.286;20.930;2023-11-21T05:29:37;18.03;;;10.67;;
30723;SDS011;17473;52.286;20.930;2023-11-21T05:32:04;15.47;;;10.03;;
30723;SDS011;17473;52.286;20.930;2023-11-21T05:34:31;16.73;;;9.47;;
30723;SDS011;17473;52.286;20.930;2023-11-21T05:36:59;14.33;;;8.87;;
30723;SDS011;17473;52.286;20.930;2023-11-21T05:39:26;18.03;;;10.63;;
30723;SDS011;17473;52.286;20.930;2023-11-21T05:41:54;14.67;;;8.17;;
30723;SDS011;17473;52.286;20.930;2023-11-21T05:44:21;18.77;;;10.87;;
30723;SDS011;17473;52.286;20.930;2023-11-21T05:46:50;18.83;;;9.73;;
30723;SDS011;17473;52.286;20.930;2023-11-21T05:49:17;17.40;;;10.03;;
30723;SDS011;17473;52.286;20.930;2023-11-21T05:51:48;14.20;;;9.00;;
30723;SDS011;17473;52.286;20.930;2023-11-21T05:54:15;15.47;;;9.30;;
30723;SDS011;17473;52.286;20.930;2023-11-21T05:56:43;15.37;;;9.60;;
30723;SDS011;17473;52.286;20.930;2023-11-21T05:59:10;14.53;;;9.90;;
30723;SDS011;17473;52.286;20.930;2023-11-21T06:01:40;14.90;;;8.93;;
30723;SDS011;17473;52.286;20.930;2023-11-21T06:04:07;16.63;;;9.23;;
30723;SDS011;17473;52.286;20.930;2023-11-21T06:06:36;13.23;;;8.80;;
30723;SDS011;17473;52.286;20.930;2023-11-21T06:09:03;14.90;;;9.57;;
30723;SDS011;17473;52.286;20.930;2023-11-21T06:11:32;15.10;;;10.30;;
30723;SDS011;17473;52.286;20.930;2023-11-21T06:13:59;13.77;;;9.30;;
30723;SDS011;17473;52.286;20.930;2023-11-21T06:16:26;13.67;;;9.33;;
30723;SDS011;17473;52.286;20.930;2023-11-21T06:18:54;13.00;;;8.10;;
30723;SDS011;17473;52.286;20.930;2023-11-21T06:21:21;19.07;;;9.73;;
30723;SDS011;17473;52.286;20.930;2023-11-21T06:23:48;14.10;;;9.37;;
30723;SDS011;17473;52.286;20.930;2023-11-21T06:26:19;14.17;;;8.67;;
30723;SDS011;17473;52.286;20.930;2023-11-21T06:28:46;18.40;;;10.60;;
30723;SDS011;17473;52.286;20.930;2023-11-21T06:31:14;15.97;;;10.23;;
30723;SDS011;17473;52.286;20.930;2023-11-21T06:33:41;16.30;;;10.60;;
30723;SDS011;17473;52.286;20.930;2023-11-21T06:36:09;16.30;;;9.73;;
30723;SDS011;17473;52.286;20.930;2023-11-21T06:38:37;13.47;;;9.10;;
30723;SDS011;17473;52.286;20.930;2023-11-21T06:41:04;18.23;;;9.90;;
30723;SDS011;17473;52.286;20.930;2023-11-21T06:43:32;15.47;;;9.23;;
30723;SDS011;17473;52.286;20.930;2023-11-21T06:45:59;17.07;;;9.43;;
30723;SDS011;17473;52.286;20.930;2023-11-21T06:48:26;18.00;;;11.03;;
30723;SDS011;17473;52.286;20.930;2023-11-21T06:50:53;18.63;;;10.67;;
30723;SDS011;17473;52.286;20.930;2023-11-21T06:53:20;18.03;;;10.87;;
30723;SDS011;17473;52.286;20.930;2023-11-21T06:55:48;21.07;;;11.77;;
30723;SDS011;17473;52.286;20.930;2023-11-21T06:58:15;18.83;;;11.10;;
30723;SDS011;17473;52.286;20.930;2023-11-21T07:00:42;19.53;;;11.10;;
30723;SDS011;17473;52.286;20.930;2023-11-21T07:03:13;19.33;;;10.37;;
30723;SDS011;17473;52.286;20.930;2023-11-21T07:05:40;19.23;;;11.40;;
30723;SDS011;17473;52.286;20.930;2023-11-21T07:08:07;22.13;;;11.50;;
30723;SDS011;17473;52.286;20.930;2023-11-21T07:10:35;18.57;;;11.23;;
30723;SDS011;17473;52.286;20.930;2023-11-21T07:13:03;26.03;;;13.87;;
30723;SDS011;17473;52.286;20.930;2023-11-21T07:15:30;22.07;;;11.63;;
30723;SDS011;17473;52.286;20.930;2023-11-21T07:17:57;19.97;;;11.53;;
30723;SDS011;17473;52.286;20.930;2023-11-21T07:20:24;19.67;;;11.33;;
30723;SDS011;17473;52.286;20.930;2023-11-21T07:22:53;22.20;;;12.17;;
30723;SDS011;17473;52.286;20.930;2023-11-21T07:25:20;21.50;;;12.63;;
30723;SDS011;17473;52.286;20.930;2023-11-21T07:27:48;19.80;;;11.33;;
30723;SDS011;17473;52.286;20.930;2023-11-21T07:30:15;19.87;;;11.00;;
30723;SDS011;17473;52.286;20.930;2023-11-21T07:32:43;18.87;;;11.27;;
30723;SDS011;17473;52.286;20.930;2023-11-21T07:35:11;21.73;;;11.93;;
30723;SDS011;17473;52.286;20.930;2023-11-21T07:37:38;17.37;;;10.87;;
30723;SDS011;17473;52.286;20.930;2023-11-21T07:40:05;18.67;;;11.67;;
30723;SDS011;17473;52.286;20.930;2023-11-21T07:42:35;18.63;;;11.47;;
30723;SDS011;17473;52.286;20.930;2023-11-21T07:45:02;17.87;;;11.27;;
30723;SDS011;17473;52.286;20.930;2023-11-21T07:47:31;16.27;;;10.47;;
30723;SDS011;17473;52.286;20.930;2023-11-21T07:50:04;17.53;;;10.70;;
30723;SDS011;17473;52.286;20.930;2023-11-21T07:52:34;18.03;;;11.13;;
30723;SDS011;17473;52.286;20.930;2023-11-21T07:55:01;24.83;;;12.53;;
30723;SDS011;17473;52.286;20.930;2023-11-21T07:57:28;20.73;;;12.03;;
30723;SDS011;17473;52.286;20.930;2023-11-21T07:59:55;16.30;;;11.07;;
30723;SDS011;17473;52.286;20.930;2023-11-21T08:02:23;20.47;;;11.70;;
30723;SDS011;17473;52.286;20.930;2023-11-21T08:04:50;20.03;;;10.90;;
30723;SDS011;17473;52.286;20.930;2023-11-21T08:07:18;17.50;;;9.53;;
30723;SDS011;17473;52.286;20.930;2023-11-21T08:09:45;20.37;;;11.53;;
30723;SDS011;17473;52.286;20.930;2023-11-21T08:12:14;20.03;;;10.97;;
30723;SDS011;17473;52.286;20.930;2023-11-21T08:14:41;16.27;;;10.40;;
30723;SDS011;17473;52.286;20.930;2023-11-21T08:17:09;18.40;;;10.43;;
30723;SDS011;17473;52.286;20.930;2023-11-21T08:19:36;16.67;;;10.07;;
30723;SDS011;17473;52.286;20.930;2023-11-21T08:22:04;16.93;;;10.07;;
30723;SDS011;17473;52.286;20.930;2023-11-21T08:24:32;19.97;;;9.63;;
30723;SDS011;17473;52.286;20.930;2023-11-21T08:26:59;16.30;;;9.77;;
30723;SDS011;17473;52.286;20.930;2023-11-21T08:29:26;14.63;;;9.03;;
30723;SDS011;17473;52.286;20.930;2023-11-21T08:31:53;15.07;;;9.43;;
30723;SDS011;17473;52.286;20.930;2023-11-21T08:34:20;15.67;;;10.30;;
30723;SDS011;17473;52.286;20.930;2023-11-21T08:36:47;19.80;;;10.37;;
30723;SDS011;17473;52.286;20.930;2023-11-21T08:39:14;17.77;;;9.83;;
30723;SDS011;17473;52.286;20.930;2023-11-21T08:41:42;18.37;;;9.93;;
30723;SDS011;17473;52.286;20.930;2023-11-21T08:44:09;16.80;;;9.63;;
30723;SDS011;17473;52.286;20.930;2023-11-21T08:46:37;15.93;;;9.57;;
30723;SDS011;17473;52.286;20.930;2023-11-21T08:49:05;16.70;;;9.33;;
30723;SDS011;17473;52.286;20.930;2023-11-21T08:51:32;16.70;;;9.90;;
30723;SDS011;17473;52.286;20.930;2023-11-21T08:53:59;18.83;;;9.90;;
30723;SDS011;17473;52.286;20.930;2023-11-21T08:56:30;18.27;;;10.33;;
30723;SDS011;17473;52.286;20.930;2023-11-21T08:58:57;19.50;;;10.63;;
30723;SDS011;17473;52.286;20.930;2023-11-21T09:01:26;19.30;;;10.83;;
30723;SDS011;17473;52.286;20.930;2023-11-21T09:03:54;17.30;;;10.37;;
30723;SDS011;17473;52.286;20.930;2023-11-21T09:06:21;17.50;;;10.00;;
30723;SDS011;17473;52.286;20.930;2023-11-21T09:08:49;17.73;;;11.20;;
30723;SDS011;17473;52.286;20.930;2023-11-21T09:11:16;22.97;;;12.13;;
30723;SDS011;17473;52.286;20.930;2023-11-21T09:13:44;22.10;;;11.70;;
30723;SDS011;17473;52.286;20.930;2023-11-21T09:16:11;19.47;;;10.70;;
30723;SDS011;17473;52.286;20.930;2023-11-21T09:18:38;22.50;;;12.40;;
30723;SDS011;17473;52.286;20.930;2023-11-21T09:21:05;20.07;;;10.90;;
30723;SDS011;17473;52.286;20.930;2023-11-21T09:23:33;21.50;;;11.53;;
30723;SDS011;17473;52.286;20.930;2023-11-21T09:26:00;17.23;;;10.23;;
30723;SDS011;17473;52.286;20.930;2023-11-21T09:28:27;21.40;;;11.33;;
30723;SDS011;17473;52.286;20.930;2023-11-21T09:30:54;17.53;;;10.87;;
30723;SDS011;17473;52.286;20.930;2023-11-21T09:33:22;17.00;;;10.67;;
30723;SDS011;17473;52.286;20.930;2023-11-21T09:35:51;18.53;;;10.17;;
30723;SDS011;17473;52.286;20.930;2023-11-21T09:38:19;18.43;;;10.80;;
30723;SDS011;17473;52.286;20.930;2023-11-21T09:40:46;17.33;;;10.17;;
30723;SDS011;17473;52.286;20.930;2023-11-21T09:43:15;18.60;;;10.60;;
30723;SDS011;17473;52.286;20.930;2023-11-21T09:45:45;18.20;;;10.00;;
30723;SDS011;17473;52.286;20.930;2023-11-21T09:48:14;16.23;;;10.50;;
30723;SDS011;17473;52.286;20.930;2023-11-21T09:50:43;18.37;;;10.63;;
30723;SDS011;17473;52.286;20.930;2023-11-21T09:55:45;17.87;;;10.47;;
30723;SDS011;17473;52.286;20.930;2023-11-21T09:58:16;17.00;;;10.07;;
30723;SDS011;17473;52.286;20.930;2023-11-21T10:00:46;15.23;;;10.13;;
30723;SDS011;17473;52.286;20.930;2023-11-21T10:03:15;20.27;;;10.73;;
30723;SDS011;17473;52.286;20.930;2023-11-21T10:05:43;24.10;;;10.37;;
30723;SDS011;17473;52.286;20.930;2023-11-21T10:08:14;18.37;;;11.00;;
30723;SDS011;17473;52.286;20.930;2023-11-21T10:10:44;18.27;;;10.87;;
30723;SDS011;17473;52.286;20.930;2023-11-21T10:13:15;19.93;;;11.63;;
30723;SDS011;17473;52.286;20.930;2023-11-21T10:15:49;18.07;;;11.10;;
30723;SDS011;17473;52.286;20.930;2023-11-21T10:18:18;17.80;;;11.43;;
30723;SDS011;17473;52.286;20.930;2023-11-21T10:20:48;18.07;;;10.77;;
30723;SDS011;17473;52.286;20.930;2023-11-21T10:23:20;18.67;;;10.07;;
30723;SDS011;17473;52.286;20.930;2023-11-21T10:25:50;17.63;;;10.17;;
30723;SDS011;17473;52.286;20.930;2023-11-21T10:28:19;19.53;;;11.33;;
30723;SDS011;17473;52.286;20.930;2023-11-21T10:30:48;18.07;;;10.93;;
30723;SDS011;17473;52.286;20.930;2023-11-21T10:33:15;18.57;;;10.47;;
30723;SDS011;17473;52.286;20.930;2023-11-21T10:35:46;19.47;;;10.80;;
30723;SDS011;17473;52.286;20.930;2023-11-21T10:38:21;19.27;;;11.17;;
30723;SDS011;17473;52.286;20.930;2023-11-21T10:40:50;19.00;;;11.30;;
30723;SDS011;17473;52.286;20.930;2023-11-21T10:43:18;21.87;;;10.93;;
30723;SDS011;17473;52.286;20.930;2023-11-21T10:45:46;20.73;;;10.80;;
30723;SDS011;17473;52.286;20.930;2023-11-21T10:48:14;16.87;;;10.00;;
30723;SDS011;17473;52.286;20.930;2023-11-21T10:50:42;18.97;;;10.83;;
30723;SDS011;17473;52.286;20.930;2023-11-21T10:53:12;22.23;;;11.67;;
30723;SDS011;17473;52.286;20.930;2023-11-21T10:55:40;20.67;;;11.50;;
30723;SDS011;17473;52.286;20.930;2023-11-21T10:58:07;20.03;;;11.60;;
30723;SDS011;17473;52.286;20.930;2023-11-21T11:00:37;21.47;;;10.47;;
30723;SDS011;17473;52.286;20.930;2023-11-21T11:03:07;19.07;;;11.43;;
30723;SDS011;17473;52.286;20.930;2023-11-21T11:05:42;20.07;;;11.53;;
30723;SDS011;17473;52.286;20.930;2023-11-21T11:08:21;22.30;;;11.73;;
30723;SDS011;17473;52.286;20.930;2023-11-21T11:10:54;18.03;;;10.57;;
30723;SDS011;17473;52.286;20.930;2023-11-21T11:13:22;18.80;;;12.00;;
30723;SDS011;17473;52.286;20.930;2023-11-21T11:15:51;23.40;;;12.47;;
30723;SDS011;17473;52.286;20.930;2023-11-21T11:18:25;19.60;;;12.20;;
30723;SDS011;17473;52.286;20.930;2023-11-21T11:20:53;20.97;;;12.73;;
30723;SDS011;17473;52.286;20.930;2023-11-21T11:26:46;19.27;;;10.67;;
30723;SDS011;17473;52.286;20.930;2023-11-21T11:32:06;19.23;;;11.63;;
30723;SDS011;17473;52.286;20.930;2023-11-21T11:35:01;22.97;;;10.97;;
30723;SDS011;17473;52.286;20.930;2023-11-21T11:37:36;20.67;;;12.23;;
30723;SDS011;17473;52.286;20.930;2023-11-21T11:40:07;20.10;;;13.13;;
30723;SDS011;17473;52.286;20.930;2023-11-21T11:42:37;24.80;;;11.97;;
30723;SDS011;17473;52.286;20.930;2023-11-21T11:45:17;23.77;;;11.70;;
30723;SDS011;17473;52.286;20.930;2023-11-21T11:47:45;19.23;;;11.33;;
30723;SDS011;17473;52.286;20.930;2023-11-21T11:50:14;22.23;;;12.60;;
30723;SDS011;17473;52.286;20.930;2023-11-21T11:52:44;19.23;;;11.33;;
30723;SDS011;17473;52.286;20.930;2023-11-21T11:55:24;20.30;;;11.73;;
30723;SDS011;17473;52.286;20.930;2023-11-21T11:57:52;21.20;;;12.47;;
30723;SDS011;17473;52.286;20.930;2023-11-21T12:02:58;25.27;;;11.93;;
30723;SDS011;17473;52.286;20.930;2023-11-21T12:05:30;23.47;;;12.70;;
30723;SDS011;17473;52.286;20.930;2023-11-21T12:08:02;22.70;;;12.73;;
30723;SDS011;17473;52.286;20.930;2023-11-21T12:10:36;19.67;;;12.03;;
30723;SDS011;17473;52.286;20.930;2023-11-21T12:13:07;13.90;;;9.60;;
30723;SDS011;17473;52.286;20.930;2023-11-21T12:15:38;19.30;;;12.03;;
30723;SDS011;17473;52.286;20.930;2023-11-21T12:18:08;20.03;;;11.90;;
30723;SDS011;17473;52.286;20.930;2023-11-21T12:20:36;22.83;;;11.97;;
30723;SDS011;17473;52.286;20.930;2023-11-21T12:23:06;25.53;;;12.27;;
30723;SDS011;17473;52.286;20.930;2023-11-21T12:25:35;24.57;;;12.87;;
30723;SDS011;17473;52.286;20.930;2023-11-21T12:28:03;22.40;;;12.03;;
30723;SDS011;17473;52.286;20.930;2023-11-21T12:30:33;19.60;;;11.27;;
30723;SDS011;17473;52.286;20.930;2023-11-21T12:33:02;20.20;;;12.30;;
30723;SDS011;17473;52.286;20.930;2023-11-21T12:35:34;21.33;;;13.00;;
30723;SDS011;17473;52.286;20.930;2023-11-21T12:38:02;20.87;;;13.00;;
30723;SDS011;17473;52.286;20.930;2023-11-21T12:40:31;20.67;;;12.67;;
30723;SDS011;17473;52.286;20.930;2023-11-21T12:42:59;18.17;;;11.30;;
30723;SDS011;17473;52.286;20.930;2023-11-21T12:45:31;21.40;;;12.17;;
30723;SDS011;17473;52.286;20.930;2023-11-21T12:48:04;24.53;;;12.63;;
30723;SDS011;17473;52.286;20.930;2023-11-21T12:50:38;21.23;;;12.07;;
30723;SDS011;17473;52.286;20.930;2023-11-21T12:53:10;21.53;;;12.37;;
30723;SDS011;17473;52.286;20.930;2023-11-21T12:55:39;20.00;;;10.93;;
30723;SDS011;17473;52.286;20.930;2023-11-21T12:58:09;21.97;;;12.60;;
30723;SDS011;17473;52.286;20.930;2023-11-21T13:03:13;20.53;;;11.80;;
30723;SDS011;17473;52.286;20.930;2023-11-21T13:05:52;20.67;;;11.93;;
30723;SDS011;17473;52.286;20.930;2023-11-21T13:08:21;19.80;;;12.20;;
30723;SDS011;17473;52.286;20.930;2023-11-21T13:10:54;23.20;;;13.47;;
30723;SDS011;17473;52.286;20.930;2023-11-21T13:13:24;21.50;;;11.57;;
30723;SDS011;17473;52.286;20.930;2023-11-21T13:16:01;21.30;;;12.63;;
30723;SDS011;17473;52.286;20.930;2023-11-21T13:18:32;22.43;;;12.23;;
30723;SDS011;17473;52.286;20.930;2023-11-21T13:21:02;19.43;;;11.83;;
30723;SDS011;17473;52.286;20.930;2023-11-21T13:23:40;23.60;;;12.83;;
30723;SDS011;17473;52.286;20.930;2023-11-21T13:26:08;19.30;;;11.17;;
30723;SDS011;17473;52.286;20.930;2023-11-21T13:28:36;20.10;;;12.50;;
30723;SDS011;17473;52.286;20.930;2023-11-21T13:31:05;21.90;;;12.07;;
30723;SDS011;17473;52.286;20.930;2023-11-21T13:33:37;20.63;;;11.67;;
30723;SDS011;17473;52.286;20.930;2023-11-21T13:36:07;19.27;;;12.63;;
30723;SDS011;17473;52.286;20.930;2023-11-21T13:38:37;24.67;;;12.60;;
30723;SDS011;17473;52.286;20.930;2023-11-21T13:41:09;18.07;;;11.70;;
30723;SDS011;17473;52.286;20.930;2023-11-21T13:43:39;23.10;;;13.20;;
30723;SDS011;17473;52.286;20.930;2023-11-21T13:46:10;23.83;;;11.57;;
30723;SDS011;17473;52.286;20.930;2023-11-21T13:48:43;19.63;;;12.13;;
30723;SDS011;17473;52.286;20.930;2023-11-21T13:51:17;20.40;;;12.20;;
30723;SDS011;17473;52.286;20.930;2023-11-21T13:53:45;21.43;;;13.03;;
30723;SDS011;17473;52.286;20.930;2023-11-21T13:56:18;20.77;;;12.87;;
30723;SDS011;17473;52.286;20.930;2023-11-21T13:58:48;21.20;;;11.60;;
30723;SDS011;17473;52.286;20.930;2023-11-21T14:03:59;19.33;;;11.87;;
30723;SDS011;17473;52.286;20.930;2023-11-21T14:06:38;24.47;;;12.07;;
30723;SDS011;17473;52.286;20.930;2023-11-21T14:09:18;22.03;;;11.97;;
30723;SDS011;17473;52.286;20.930;2023-11-21T14:11:55;19.43;;;11.37;;
30723;SDS011;17473;52.286;20.930;2023-11-21T14:14:24;22.47;;;12.93;;
30723;SDS011;17473;52.286;20.930;2023-11-21T14:16:54;20.70;;;12.20;;
30723;SDS011;17473;52.286;20.930;2023-11-21T14:19:25;16.90;;;11.13;;
30723;SDS011;17473;52.286;20.930;2023-11-21T14:21:59;20.77;;;13.00;;
30723;SDS011;17473;52.286;20.930;2023-11-21T14:24:27;21.73;;;12.37;;
30723;SDS011;17473;52.286;20.930;2023-11-21T14:26:55;15.73;;;10.67;;
30723;SDS011;17473;52.286;20.930;2023-11-21T14:29:22;19.20;;;11.83;;
30723;SDS011;17473;52.286;20.930;2023-11-21T14:31:50;25.03;;;13.10;;
30723;SDS011;17473;52.286;20.930;2023-11-21T14:34:20;18.83;;;11.40;;
30723;SDS011;17473;52.286;20.930;2023-11-21T14:36:49;22.57;;;12.37;;